Time;durP1;ratioP1;P1;durP2;ratioP2;P2;SDS_P1;SDS_P2;PMS_P1;PMS_P2;Temp;Humidity;BMP_temperature;BMP_pressure;BME280_temperature;BME280_humidity;BME280_pressure;Samples;Min_cycle;Max_cycle;Signal;HPM_P1;HPM_P2
2022/11/16 00:01:23;;;;;;;10.30;8.88;;;;;;;10.70;100.00;99910.53;6282429;22;20012;-75
2022/11/16 00:03:51;;;;;;;11.18;9.15;;;;;;;10.72;100.00;99913.47;6254892;22;20522;-76
2022/11/16 00:06:19;;;;;;;10.00;8.98;;;;;;;10.72;100.00;99910.06;6281624;22;20016;-76
2022/11/16 00:09:20;;;;;;;10.52;9.48;;;;;;;10.73;100.00;99912.28;6281912;22;20051;-75
2022/11/16 00:11:36;;;;;;;10.20;9.30;;;;;;;10.74;100.00;99903.09;6280759;22;20179;-75
2022/11/16 00:14:03;;;;;;;10.50;9.23;;;;;;;10.73;100.00;99904.28;6282039;22;20247;-75
2022/11/16 00:16:31;;;;;;;10.65;9.60;;;;;;;10.74;100.00;99900.44;6281708;22;20612;-75
2022/11/16 00:18:59;;;;;;;9.15;8.35;;;;;;;10.76;100.00;99902.63;6282060;22;20512;-75
2022/11/16 00:21:26;;;;;;;10.13;9.23;;;;;;;10.76;100.00;99905.28;6281587;22;20137;-75
2022/11/16 00:23:53;;;;;;;12.15;9.10;;;;;;;10.77;100.00;99901.44;6281971;22;20058;-76
2022/11/16 00:26:20;;;;;;;9.07;8.18;;;;;;;10.77;100.00;99904.84;6280979;22;20048;-76
2022/11/16 00:28:47;;;;;;;10.00;9.10;;;;;;;10.78;100.00;99905.56;6281976;22;20085;-76
2022/11/16 00:31:14;;;;;;;11.10;9.02;;;;;;;10.78;100.00;99906.31;6281926;22;20052;-76
2022/11/16 00:33:40;;;;;;;10.73;9.50;;;;;;;10.79;100.00;99902.44;6253978;22;20059;-76
2022/11/16 00:36:09;;;;;;;11.77;9.38;;;;;;;10.78;100.00;99887.66;6281889;22;20469;-75
2022/11/16 00:38:36;;;;;;;10.32;9.35;;;;;;;10.79;100.00;99899.06;6281479;22;20013;-75
2022/11/16 00:41:04;;;;;;;9.98;8.98;;;;;;;10.81;100.00;99899.31;6281393;22;20039;-75
2022/11/16 00:43:30;;;;;;;13.20;9.30;;;;;;;10.80;100.00;99895.91;6280571;22;20012;-76
2022/11/16 00:45:57;;;;;;;10.40;9.38;;;;;;;10.81;100.00;99908.03;6254412;22;20027;-76
2022/11/16 00:48:24;;;;;;;10.02;9.13;;;;;;;10.81;100.00;99894.72;6253993;22;20023;-76
2022/11/16 00:50:50;;;;;;;10.23;9.20;;;;;;;10.81;100.00;99886.72;6254494;22;20449;-75
2022/11/16 00:53:19;;;;;;;10.13;9.18;;;;;;;10.82;100.00;99890.84;6281205;22;20099;-75
2022/11/16 00:55:46;;;;;;;9.85;8.95;;;;;;;10.82;100.00;99882.88;6281201;22;20020;-75
2022/11/16 00:58:15;;;;;;;11.07;9.30;;;;;;;10.84;100.00;99879.75;6254201;22;20095;-77
2022/11/16 01:00:44;;;;;;;10.23;9.07;;;;;;;10.84;100.00;99891.13;6254178;22;20066;-76
2022/11/16 01:03:11;;;;;;;10.48;9.52;;;;;;;10.83;100.00;99881.66;6254608;22;20074;-76
2022/11/16 01:05:37;;;;;;;10.82;9.73;;;;;;;10.83;100.00;99872.94;6254037;22;20020;-76
2022/11/16 01:08:06;;;;;;;12.00;9.65;;;;;;;10.82;100.00;99885.53;6254398;22;20051;-76
2022/11/16 01:10:33;;;;;;;11.18;10.05;;;;;;;10.84;100.00;99890.38;6253478;22;20031;-76
2022/11/16 01:13:00;;;;;;;9.57;8.60;;;;;;;10.83;100.00;99887.00;6253963;22;20024;-76
2022/11/16 01:15:27;;;;;;;10.35;9.32;;;;;;;10.84;100.00;99882.41;6281152;22;20039;-76
2022/11/16 01:17:55;;;;;;;10.15;9.25;;;;;;;10.84;100.00;99872.50;6254352;22;20043;-76
2022/11/16 01:20:27;;;;;;;10.60;9.70;;;;;;;10.84;100.00;99875.16;6281049;22;20023;-77
2022/11/16 01:22:53;;;;;;;10.85;9.85;;;;;;;10.85;100.00;99881.22;6281906;22;20469;-76
2022/11/16 01:25:20;;;;;;;11.10;9.70;;;;;;;10.84;100.00;99880.47;6280708;22;20039;-76
2022/11/16 01:27:47;;;;;;;10.82;9.73;;;;;;;10.86;100.00;99872.03;6254222;22;20028;-76
2022/11/16 01:30:20;;;;;;;10.27;9.27;;;;;;;10.85;100.00;99865.97;6253783;22;20051;-76
2022/11/16 01:32:57;;;;;;;11.55;9.23;;;;;;;10.86;100.00;99872.75;6254458;22;20020;-76
2022/11/16 01:35:24;;;;;;;9.95;8.95;;;;;;;10.86;100.00;99864.78;6253978;22;20048;-76
2022/11/16 01:37:51;;;;;;;11.07;9.07;;;;;;;10.87;100.00;99866.25;6254176;22;20070;-76
2022/11/16 01:40:17;;;;;;;10.73;9.55;;;;;;;10.89;100.00;99860.47;6253679;22;20143;-76
2022/11/16 01:42:44;;;;;;;9.80;8.80;;;;;;;10.89;100.00;99861.19;6253635;22;20043;-76
2022/11/16 01:45:36;;;;;;;10.98;9.98;;;;;;;10.90;100.00;99864.59;6254351;22;20027;-76
2022/11/16 01:48:06;;;;;;;9.90;8.88;;;;;;;10.90;100.00;99861.94;6281957;22;20104;-76
2022/11/16 01:50:33;;;;;;;10.15;9.15;;;;;;;10.91;100.00;99871.38;6281341;22;20416;-76
2022/11/16 01:53:04;;;;;;;10.65;9.55;;;;;;;10.90;100.00;99867.25;6253443;22;20032;-77
2022/11/16 01:55:42;;;;;;;9.75;8.88;;;;;;;10.89;100.00;99866.50;6253303;22;20055;-76
2022/11/16 01:58:23;;;;;;;13.07;9.65;;;;;;;10.90;100.00;99867.97;6253962;22;20016;-76
2022/11/16 02:01:04;;;;;;;10.23;9.23;;;;;;;10.90;100.00;99860.00;6253826;22;20047;-78
2022/11/16 02:03:39;;;;;;;9.98;9.00;;;;;;;10.90;100.00;99854.66;6253672;22;20047;-78
2022/11/16 02:06:26;;;;;;;9.60;8.80;;;;;;;10.91;100.00;99856.13;6228793;22;20043;-78
2022/11/16 02:12:28;;;;;;;8.95;8.20;;;;;;;10.92;100.00;99840.91;6254059;22;20020;-74
2022/11/16 02:15:07;;;;;;;10.10;9.30;;;;;;;10.91;100.00;99842.09;6254143;22;20016;-77
2022/11/16 02:18:03;;;;;;;8.90;8.00;;;;;;;10.91;100.00;99842.81;6253770;22;20047;-76
2022/11/16 02:20:52;;;;;;;9.10;8.30;;;;;;;10.92;100.00;99832.91;6281075;22;20044;-75
2022/11/16 02:23:34;;;;;;;10.52;9.23;;;;;;;10.91;100.00;99829.50;6253324;22;20070;-76
2022/11/16 02:26:37;;;;;;;10.30;9.10;;;;;;;10.93;100.00;99834.38;6254232;22;20070;-75
2022/11/16 02:29:19;;;;;;;11.55;8.50;;;;;;;10.93;100.00;99834.38;6281559;22;20467;-77
2022/11/16 02:32:03;;;;;;;9.15;8.27;;;;;;;10.93;100.00;99837.03;6281534;22;20522;-75
2022/11/16 02:34:35;;;;;;;8.38;7.57;;;;;;;10.92;100.00;99833.63;6253898;22;20012;-77
2022/11/16 02:37:05;;;;;;;10.50;8.93;;;;;;;10.92;100.00;99828.31;6280688;22;20472;-76
2022/11/16 02:39:33;;;;;;;9.23;8.32;;;;;;;10.93;100.00;99834.38;6280854;22;20043;-76
2022/11/16 02:42:04;;;;;;;9.15;8.35;;;;;;;10.92;100.00;99836.31;6253486;22;20066;-76
2022/11/16 02:44:39;;;;;;;9.20;8.38;;;;;;;10.93;100.00;99831.72;6280830;22;20016;-76
2022/11/16 02:47:13;;;;;;;11.60;8.35;;;;;;;10.93;100.00;99829.78;6253749;22;20551;-76
2022/11/16 02:49:46;;;;;;;8.60;7.80;;;;;;;10.93;100.00;99829.78;6253363;22;20099;-76
2022/11/16 02:52:14;;;;;;;8.65;7.95;;;;;;;10.93;100.00;99832.44;6280575;22;20016;-76
2022/11/16 02:54:41;;;;;;;9.13;8.23;;;;;;;10.93;100.00;99839.69;6253364;22;20451;-76
2022/11/16 02:57:07;;;;;;;9.48;8.27;;;;;;;10.92;100.00;99830.25;6253366;22;20115;-76
2022/11/16 02:59:40;;;;;;;11.45;8.50;;;;;;;10.91;100.00;99826.84;6253268;22;20043;-75
2022/11/16 03:02:16;;;;;;;8.32;7.53;;;;;;;10.91;100.00;99826.84;6254010;22;20368;-75
2022/11/16 03:04:48;;;;;;;9.05;8.18;;;;;;;10.92;100.00;99828.31;6281004;22;20016;-75
2022/11/16 03:07:19;;;;;;;8.85;8.13;;;;;;;10.92;100.00;99836.31;6254061;22;20016;-75
2022/11/16 03:09:48;;;;;;;;;;;;;;;10.94;100.00;99838.50;6255264;22;20108;-75
2022/11/16 03:12:21;;;;;;;9.32;8.43;;;;;;;10.93;100.00;99837.78;6254710;22;19919;-75
2022/11/16 03:15:00;;;;;;;9.77;8.82;;;;;;;10.93;100.00;99831.72;6255037;22;20020;-75
2022/11/16 03:17:36;;;;;;;8.65;7.78;;;;;;;10.93;100.00;99840.44;6281892;22;20016;-75
2022/11/16 03:20:06;;;;;;;8.73;7.93;;;;;;;10.93;100.00;99845.03;6254427;22;20025;-75
2022/11/16 03:22:40;;;;;;;8.50;7.72;;;;;;;10.91;100.00;99840.16;6254576;22;20031;-75
2022/11/16 03:25:10;;;;;;;8.18;7.47;;;;;;;10.91;100.00;99837.50;6255026;22;20055;-75
2022/11/16 03:27:40;;;;;;;8.77;7.97;;;;;;;10.90;100.00;99837.97;6281887;22;20016;-75
2022/11/16 03:30:11;;;;;;;7.95;7.25;;;;;;;10.90;100.00;99846.69;6255148;22;20024;-75
2022/11/16 03:32:49;;;;;;;8.40;7.70;;;;;;;10.90;100.00;99840.63;6254608;22;20026;-76
2022/11/16 03:35:29;;;;;;;8.43;7.72;;;;;;;10.89;100.00;99833.84;6253676;22;20070;-74
2022/11/16 03:37:59;;;;;;;7.85;7.05;;;;;;;10.86;100.00;99840.06;6254738;22;20067;-75
2022/11/16 03:40:30;;;;;;;7.72;7.13;;;;;;;10.86;100.00;99840.81;6254360;22;20386;-75
2022/11/16 03:43:00;;;;;;;8.05;7.45;;;;;;;10.85;100.00;99842.00;6254505;22;20020;-75
2022/11/16 03:45:28;;;;;;;10.60;8.15;;;;;;;10.84;100.00;99845.88;6254338;22;20035;-75
2022/11/16 03:50:48;;;;;;;;;;;;;;;10.82;100.00;99850.19;6158357;23;20145;-76
2022/11/16 03:53:15;;;;;;;9.68;7.13;;;;;;;10.80;100.00;99844.59;6183116;23;19927;-76
2022/11/16 03:55:41;;;;;;;8.63;7.82;;;;;;;10.80;100.00;99844.59;6160128;23;20018;-76
2022/11/16 03:58:17;;;;;;;8.95;7.72;;;;;;;10.78;100.00;99847.72;6183972;23;20026;-76
2022/11/16 04:00:44;;;;;;;9.55;8.65;;;;;;;10.77;100.00;99859.56;6158550;23;20022;-77
2022/11/16 04:03:10;;;;;;;8.38;7.57;;;;;;;10.74;100.00;99857.84;6158565;23;20042;-77
2022/11/16 04:25:22;;;;;;;6.43;5.75;;;;;;;10.58;100.00;99855.63;6184068;23;20105;-76
2022/11/16 04:38:58;;;;;;;7.93;5.07;;;;;;;10.47;100.00;99880.13;6160772;23;20021;-76
2022/11/16 04:44:09;;;;;;;5.60;5.10;;;;;;;10.43;100.00;99881.50;6183829;23;20025;-76
2022/11/16 04:49:22;;;;;;;7.90;4.32;;;;;;;10.39;100.00;99880.97;6176629;23;20081;-76
2022/11/16 04:51:48;;;;;;;7.75;4.88;;;;;;;10.39;100.00;99878.31;6188795;23;20420;-76
2022/11/16 04:54:15;;;;;;;7.00;4.80;;;;;;;10.38;100.00;99882.16;6188310;23;20034;-77
2022/11/16 04:56:42;;;;;;;7.65;4.68;;;;;;;10.34;100.00;99879.69;6188310;23;20024;-77
2022/11/16 04:59:08;;;;;;;5.90;4.38;;;;;;;10.32;100.00;99885.47;6188668;23;20018;-77
2022/11/16 05:04:20;;;;;;;5.50;4.45;;;;;;;10.27;100.00;99880.78;6188437;23;20022;-77
2022/11/16 05:06:47;;;;;;;5.60;5.10;;;;;;;10.26;100.00;99881.97;6188823;23;20123;-77
2022/11/16 05:09:14;;;;;;;7.38;4.60;;;;;;;10.22;100.00;99889.41;6163535;23;20077;-77
2022/11/16 05:11:41;;;;;;;5.22;4.65;;;;;;;10.22;100.00;99888.66;6190028;23;20013;-77
2022/11/16 05:14:09;;;;;;;7.28;4.75;;;;;;;10.19;100.00;99887.66;6188643;23;20029;-77
2022/11/16 05:16:37;;;;;;;5.25;4.72;;;;;;;10.16;100.00;99891.19;6187538;23;20425;-77
2022/11/16 05:21:49;;;;;;;5.53;4.90;;;;;;;10.12;100.00;99901.25;6188869;23;20095;-79
2022/11/16 05:24:34;;;;;;;6.13;4.88;;;;;;;10.10;100.00;99902.91;6188497;23;20518;-79
2022/11/16 05:27:08;;;;;;;5.75;4.93;;;;;;;10.08;100.00;99907.94;6163719;23;20013;-79
2022/11/16 05:29:36;;;;;;;6.25;4.75;;;;;;;10.07;100.00;99904.56;6162635;23;20351;-76
2022/11/16 05:32:04;;;;;;;7.40;4.90;;;;;;;10.02;100.00;99905.91;6163526;23;20437;-76
2022/11/16 05:34:31;;;;;;;6.13;5.63;;;;;;;10.02;100.00;99905.91;6163024;23;20404;-78
2022/11/16 05:36:58;;;;;;;8.95;5.22;;;;;;;9.99;100.00;99908.78;6163561;23;20079;-76
2022/11/16 05:39:25;;;;;;;8.15;5.50;;;;;;;9.96;100.00;99905.09;6187876;23;20454;-78
2022/11/16 05:41:53;;;;;;;6.35;5.47;;;;;;;9.94;100.00;99906.75;6163643;23;20018;-76
2022/11/16 05:44:21;;;;;;;5.88;5.35;;;;;;;9.92;100.00;99909.84;6161923;23;20026;-76
2022/11/16 05:46:49;;;;;;;7.40;5.50;;;;;;;9.90;100.00;99914.16;6163316;23;20022;-76
2022/11/16 05:49:17;;;;;;;6.05;5.35;;;;;;;9.87;100.00;99917.72;6188034;23;20025;-77
2022/11/16 05:51:46;;;;;;;11.27;5.53;;;;;;;9.84;100.00;99919.34;6163625;23;20013;-77
2022/11/16 05:54:18;;;;;;;9.80;6.32;;;;;;;9.83;100.00;99925.84;6188051;23;20053;-77
2022/11/16 05:56:46;;;;;;;6.45;5.80;;;;;;;9.83;100.00;99917.88;6163844;23;20042;-77
2022/11/16 05:59:14;;;;;;;8.68;6.03;;;;;;;9.85;100.00;99925.41;6187743;23;20488;-77
2022/11/16 06:01:46;;;;;;;7.97;5.90;;;;;;;9.82;100.00;99924.38;6163226;23;20021;-77
2022/11/16 06:04:13;;;;;;;8.10;6.45;;;;;;;9.78;100.00;99929.13;6190146;23;20022;-76
2022/11/16 06:06:40;;;;;;;6.63;6.03;;;;;;;9.75;100.00;99919.41;6163112;23;20024;-77
2022/11/16 06:09:08;;;;;;;9.88;7.10;;;;;;;9.74;100.00;99917.19;6190058;23;20013;-77
2022/11/16 06:11:37;;;;;;;11.60;7.50;;;;;;;9.72;100.00;99924.88;6162927;23;20017;-77
2022/11/16 06:14:05;;;;;;;8.65;7.78;;;;;;;9.71;100.00;99926.81;6162635;23;20033;-76
2022/11/16 06:16:33;;;;;;;9.15;7.85;;;;;;;9.67;100.00;99921.66;6162848;23;20450;-77
2022/11/16 06:19:02;;;;;;;11.65;8.55;;;;;;;9.66;100.00;99919.47;6163107;23;20041;-77
2022/11/16 06:21:29;;;;;;;11.88;9.13;;;;;;;9.65;100.00;99918.72;6188078;23;20068;-77
2022/11/16 06:23:55;;;;;;;10.40;9.23;;;;;;;9.66;100.00;99916.81;6189993;23;20018;-77
2022/11/16 06:26:22;;;;;;;10.82;9.57;;;;;;;9.65;100.00;99918.72;6187805;23;20486;-77
2022/11/16 06:28:48;;;;;;;10.50;9.35;;;;;;;9.63;100.00;99915.03;6187744;23;20023;-76
2022/11/16 06:31:15;;;;;;;18.45;9.77;;;;;;;9.61;100.00;99920.81;6163256;23;20096;-76
2022/11/16 06:33:43;;;;;;;12.60;10.05;;;;;;;9.60;100.00;99921.25;6188654;23;20070;-77
2022/11/16 06:36:16;;;;;;;13.18;10.38;;;;;;;9.57;100.00;99925.59;6163281;23;20425;-77
2022/11/16 06:38:43;;;;;;;15.48;10.35;;;;;;;9.56;100.00;99923.38;6188775;23;20018;-77
2022/11/16 06:41:11;;;;;;;16.25;10.23;;;;;;;9.55;100.00;99924.56;6163743;23;20168;-78
2022/11/16 06:43:43;;;;;;;13.60;10.02;;;;;;;9.53;100.00;99929.59;6188568;23;20026;-78
2022/11/16 06:46:09;;;;;;;11.02;9.63;;;;;;;9.50;100.00;99938.47;6190680;23;20018;-78
2022/11/16 06:48:38;;;;;;;12.18;9.55;;;;;;;9.46;100.00;99935.97;6188617;23;20028;-76
2022/11/16 06:51:09;;;;;;;12.60;10.05;;;;;;;9.42;100.00;99939.97;6189072;23;20105;-78
2022/11/16 06:53:35;;;;;;;19.33;10.68;;;;;;;9.40;100.00;99942.34;6190350;23;20029;-78
2022/11/16 06:56:04;;;;;;;16.30;10.30;;;;;;;9.36;100.00;99943.25;6163892;23;20096;-79
2022/11/16 06:58:35;;;;;;;13.63;9.48;;;;;;;9.33;100.00;99954.03;6163624;23;20028;-79
2022/11/16 07:01:09;;;;;;;12.43;10.05;;;;;;;9.29;100.00;99953.44;6163868;23;20021;-80
2022/11/16 07:03:38;;;;;;;16.92;9.50;;;;;;;9.24;100.00;99946.81;6163549;23;20100;-79
2022/11/16 07:06:11;;;;;;;13.43;9.43;;;;;;;9.21;100.00;99949.63;6188421;23;20362;-79
2022/11/16 07:08:40;;;;;;;12.18;9.98;;;;;;;9.18;100.00;99953.22;6139615;23;20064;-79
2022/11/16 07:11:09;;;;;;;13.57;9.27;;;;;;;9.13;100.00;99953.81;6187744;23;20101;-79
2022/11/16 07:13:37;;;;;;;12.32;9.40;;;;;;;9.10;100.00;99955.44;6188194;23;20052;-79
2022/11/16 07:16:10;;;;;;;8.85;7.90;;;;;;;9.08;100.00;99959.72;6188065;23;20041;-80
2022/11/16 07:18:41;;;;;;;12.20;8.30;;;;;;;9.04;100.00;99965.19;6163736;23;20017;-79
2022/11/16 07:21:10;;;;;;;13.18;8.02;;;;;;;8.99;100.00;99961.22;6189953;23;20068;-78
2022/11/16 07:23:37;;;;;;;10.50;7.57;;;;;;;8.97;100.00;99963.59;6190050;23;20033;-77
2022/11/16 07:26:08;;;;;;;17.83;8.70;;;;;;;8.95;100.00;99976.56;6187630;23;20025;-79
2022/11/16 07:28:43;;;;;;;11.23;7.13;;;;;;;8.92;100.00;99974.81;6188024;23;20411;-79
2022/11/16 07:31:17;;;;;;;11.57;6.80;;;;;;;8.90;100.00;99979.81;6189970;23;20523;-79
2022/11/16 07:33:44;;;;;;;13.95;6.78;;;;;;;8.88;100.00;99987.50;6188039;23;20057;-79
2022/11/16 07:36:33;;;;;;;9.20;6.43;;;;;;;8.87;100.00;99985.28;6189813;23;20081;-80
2022/11/16 07:39:01;;;;;;;8.00;6.18;;;;;;;8.87;100.00;99990.59;6188065;23;20024;-79
2022/11/16 07:41:28;;;;;;;10.52;5.68;;;;;;;8.84;100.00;99989.56;6189413;23;20017;-80
2022/11/16 07:44:09;;;;;;;7.13;5.05;;;;;;;8.82;100.00;99994.56;6187893;23;20459;-79
2022/11/16 07:46:40;;;;;;;10.70;5.77;;;;;;;8.81;100.00;99995.00;6163413;23;20048;-79
2022/11/16 07:49:17;;;;;;;11.15;5.35;;;;;;;8.80;100.00;99993.53;6189377;23;20101;-79
2022/11/16 07:51:51;;;;;;;8.38;5.03;;;;;;;8.81;100.00;100001.06;6163250;23;20041;-77
2022/11/16 07:54:32;;;;;;;9.80;4.57;;;;;;;8.78;100.00;100001.97;6188105;23;20025;-78
2022/11/16 07:56:59;;;;;;;8.38;4.18;;;;;;;8.79;100.00;100010.69;6189485;23;20022;-78
2022/11/16 07:59:27;;;;;;;11.55;4.00;;;;;;;8.78;100.00;100012.59;6189352;23;20017;-78
2022/11/16 08:01:57;;;;;;;10.23;4.00;;;;;;;8.77;100.00;100019.06;6164320;23;20025;-78
2022/11/16 08:04:25;;;;;;;8.35;3.60;;;;;;;8.79;100.00;100013.31;6189164;23;20446;-78
2022/11/16 08:06:52;;;;;;;7.20;4.03;;;;;;;8.79;100.00;100019.38;6191230;23;20009;-77
2022/11/16 08:09:19;;;;;;;4.88;3.45;;;;;;;8.81;100.00;100026.88;6188676;23;20308;-78
2022/11/16 08:11:49;;;;;;;5.00;3.15;;;;;;;8.81;100.00;100027.59;6164337;23;20018;-79
2022/11/16 08:14:18;;;;;;;4.05;3.38;;;;;;;8.82;100.00;100038.94;6189220;23;20030;-79
2022/11/16 08:16:46;;;;;;;7.47;2.95;;;;;;;8.82;100.00;100034.38;6189194;23;20049;-79
2022/11/16 08:19:13;;;;;;;6.95;3.60;;;;;;;8.84;100.00;100039.97;6189254;23;20022;-79
2022/11/16 08:21:40;;;;;;;9.43;3.60;;;;;;;8.86;100.00;100036.88;6191110;23;20018;-79
2022/11/16 08:24:07;;;;;;;10.90;3.20;;;;;;;8.87;100.00;100035.72;6163913;23;20899;-79
2022/11/16 08:26:37;;;;;;;9.00;3.35;;;;;;;8.87;100.00;100036.44;6189457;23;20021;-79
2022/11/16 08:29:08;;;;;;;7.65;3.30;;;;;;;8.89;100.00;100039.41;6189426;23;20426;-79
2022/11/16 08:31:38;;;;;;;6.03;2.78;;;;;;;8.89;100.00;100042.03;6163956;23;20018;-78
2022/11/16 08:34:10;;;;;;;6.22;2.90;;;;;;;8.91;100.00;100036.28;6189348;23;20074;-77
2022/11/16 08:36:40;;;;;;;5.90;3.30;;;;;;;8.93;100.00;100045.28;6164402;23;20028;-78
2022/11/16 08:39:07;;;;;;;6.45;3.00;;;;;;;8.95;100.00;100042.19;6188750;23;20084;-81
2022/11/16 08:41:34;;;;;;;8.65;3.72;;;;;;;8.94;100.00;100044.13;6164378;23;20478;-77
2022/11/16 08:44:01;;;;;;;8.23;4.60;;;;;;;8.95;100.00;100045.59;6189260;23;20105;-78
2022/11/16 08:46:29;;;;;;;7.43;3.83;;;;;;;8.96;100.00;100051.63;6189165;23;20021;-78
2022/11/16 08:49:05;;;;;;;11.57;4.38;;;;;;;9.00;100.00;100050.31;6163545;23;20072;-78
2022/11/16 08:51:32;;;;;;;11.63;4.10;;;;;;;9.05;100.00;100056.94;6191037;23;20037;-79
2022/11/16 08:54:04;;;;;;;7.63;4.28;;;;;;;9.05;100.00;100053.53;6188091;23;20026;-81
2022/11/16 08:56:31;;;;;;;8.25;3.80;;;;;;;9.07;100.00;100053.84;6188548;23;20021;-80
2022/11/16 08:58:58;;;;;;;6.20;3.92;;;;;;;9.10;100.00;100055.59;6164176;23;20013;-80
2022/11/16 09:01:28;;;;;;;9.48;3.83;;;;;;;9.12;100.00;100056.63;6188862;23;20077;-80
2022/11/16 09:03:55;;;;;;;9.85;4.03;;;;;;;9.16;100.00;100051.91;6190142;23;20354;-80
2022/11/16 09:06:24;;;;;;;5.30;3.38;;;;;;;9.16;100.00;100051.91;6190420;23;20017;-80
2022/11/16 09:08:50;;;;;;;14.45;4.50;;;;;;;9.24;100.00;100050.41;6189892;23;20250;-80
2022/11/16 09:11:20;;;;;;;7.53;3.55;;;;;;;9.31;100.00;100055.41;6190649;23;20013;-80
2022/11/16 09:13:49;;;;;;;7.88;3.17;;;;;;;9.33;100.00;100057.63;6190428;23;20113;-80
2022/11/16 09:16:16;;;;;;;11.10;3.63;;;;;;;9.36;100.00;100056.72;6190197;23;20068;-80
2022/11/16 09:18:45;;;;;;;9.70;3.38;;;;;;;9.40;100.00;100057.31;6190610;23;20020;-80
2022/11/16 09:21:20;;;;;;;4.80;3.15;;;;;;;9.44;100.00;100052.56;6190441;23;20009;-79
2022/11/16 09:23:47;;;;;;;3.55;3.25;;;;;;;9.44;100.00;100054.50;6190402;23;20403;-80
2022/11/16 09:26:14;;;;;;;5.88;3.28;;;;;;;9.48;100.00;100061.13;6190589;23;20017;-81
2022/11/16 09:28:41;;;;;;;13.57;3.85;;;;;;;9.53;100.00;100067.75;6190656;23;20394;-80
2022/11/16 09:31:09;;;;;;;10.65;3.22;;;;;;;9.54;100.00;100067.31;6190433;23;20501;-80
2022/11/16 09:33:35;;;;;;;11.30;2.85;;;;;;;9.56;100.00;100072.91;6190379;23;20026;-79
2022/11/16 09:36:05;;;;;;;6.68;3.28;;;;;;;9.62;100.00;100073.75;6190052;23;20014;-80
2022/11/16 09:38:33;;;;;;;9.30;3.08;;;;;;;9.65;100.00;100067.53;6190694;23;20018;-79
2022/11/16 09:41:37;;;;;;;7.47;2.90;;;;;;;9.67;100.00;100067.84;6190645;23;20020;-79
2022/11/16 09:44:17;;;;;;;11.40;3.50;;;;;;;9.68;100.00;100071.97;6190644;23;20029;-80
2022/11/16 09:46:47;;;;;;;9.88;2.88;;;;;;;9.73;100.00;100080.53;6190416;23;20013;-80
2022/11/16 09:49:22;;;;;;;13.85;3.25;;;;;;;9.77;100.00;100075.78;6190110;23;20105;-80
2022/11/16 09:51:56;;;;;;;8.88;3.00;;;;;;;9.76;100.00;100076.97;6190056;23;20020;-79
2022/11/16 09:54:27;;;;;;;9.55;3.03;;;;;;;9.79;100.00;100073.41;6190387;23;20053;-80
2022/11/16 09:56:59;;;;;;;6.43;3.25;;;;;;;9.81;100.00;100074.44;6190749;23;20384;-80
2022/11/16 09:59:28;;;;;;;;;;;;;;;9.82;100.00;100078.56;6191158;23;20064;-80
2022/11/16 10:01:57;;;;;;;6.85;3.17;;;;;;;9.83;100.00;100085.34;6190380;23;19921;-80
2022/11/16 10:04:56;;;;;;;8.70;2.90;;;;;;;9.81;100.00;100079.75;6190284;23;20089;-80
2022/11/16 10:07:40;;;;;;;8.02;2.90;;;;;;;9.84;100.00;100080.78;6190728;23;20018;-81
2022/11/16 10:10:13;;;;;;;6.45;2.95;;;;;;;9.86;100.00;100087.13;6190369;23;20076;-81
2022/11/16 10:12:46;;;;;;;7.85;2.60;;;;;;;9.87;99.93;100077.22;6190382;23;20014;-80
2022/11/16 10:15:37;;;;;;;5.50;2.63;;;;;;;9.90;100.00;100078.97;6190384;23;20025;-80
2022/11/16 10:18:19;;;;;;;4.28;2.17;;;;;;;9.95;99.43;100079.09;6190232;23;20464;-81
2022/11/16 10:21:02;;;;;;;12.45;2.85;;;;;;;9.98;99.03;100070.22;6189903;23;20010;-79
2022/11/16 10:23:50;;;;;;;6.32;3.00;;;;;;;9.99;98.89;100070.97;6190692;23;20072;-83
2022/11/16 10:26:19;;;;;;;11.05;2.53;;;;;;;10.00;97.89;100067.84;6164420;23;20525;-85
2022/11/16 10:29:23;;;;;;;7.80;2.72;;;;;;;10.03;98.29;100074.91;6190292;23;20018;-80
2022/11/16 10:32:05;;;;;;;7.32;2.55;;;;;;;10.03;97.74;100071.50;6190531;23;20017;-81
2022/11/16 10:34:53;;;;;;;5.45;2.25;;;;;;;10.04;97.79;100067.66;6163064;23;20017;-80
2022/11/16 10:37:21;;;;;;;6.93;2.10;;;;;;;10.05;96.06;100077.13;6190385;23;20061;-80
2022/11/16 10:39:50;;;;;;;6.75;2.05;;;;;;;10.06;96.09;100075.94;6190122;23;20089;-80
2022/11/16 10:42:40;;;;;;;8.63;2.80;;;;;;;10.12;97.48;100071.47;6188150;23;20080;-81
2022/11/16 10:45:10;;;;;;;4.78;2.50;;;;;;;10.17;96.56;100070.84;6189863;23;20462;-81
2022/11/16 10:47:53;;;;;;;4.53;1.95;;;;;;;10.14;96.43;100066.44;6190329;23;20443;-85
2022/11/16 10:50:25;;;;;;;5.82;2.10;;;;;;;10.18;95.54;100076.91;6188923;23;20462;-80
2022/11/16 10:52:52;;;;;;;4.40;2.25;;;;;;;10.24;95.76;100072.47;6190325;23;20072;-80
2022/11/16 10:55:20;;;;;;;5.00;2.20;;;;;;;10.31;95.46;100075.53;6189825;23;20132;-83
2022/11/16 10:57:56;;;;;;;7.55;2.40;;;;;;;10.29;95.04;100079.84;6189955;23;20104;-85
2022/11/16 11:00:33;;;;;;;7.47;2.30;;;;;;;10.30;94.44;100076.72;6189352;23;20077;-82
2022/11/16 11:03:00;;;;;;;10.95;2.50;;;;;;;10.41;93.84;100076.19;6187652;23;20108;-82
2022/11/16 11:05:26;;;;;;;10.18;2.30;;;;;;;10.48;92.77;100067.88;6189742;23;20085;-81
2022/11/16 11:08:05;;;;;;;7.78;2.53;;;;;;;10.46;92.90;100077.50;6190072;23;20403;-81
2022/11/16 11:10:35;;;;;;;8.10;2.47;;;;;;;10.41;92.44;100078.84;6189971;23;20411;-82
2022/11/16 11:13:03;;;;;;;7.65;2.60;;;;;;;10.47;93.37;100077.03;6188062;23;20494;-81
2022/11/16 11:15:31;;;;;;;4.80;2.55;;;;;;;10.59;92.80;100068.09;6163783;23;20050;-81
2022/11/16 11:18:19;;;;;;;4.43;2.13;;;;;;;10.63;92.50;100070.59;6187551;23;20076;-82
2022/11/16 11:20:49;;;;;;;6.20;2.50;;;;;;;10.60;92.02;100074.16;6192571;23;20017;-84
2022/11/16 11:23:25;;;;;;;5.35;2.20;;;;;;;10.60;92.08;100071.50;6192552;23;20534;-83
2022/11/16 11:25:59;;;;;;;7.30;2.20;;;;;;;10.63;92.05;100073.25;6190060;23;20443;-85
2022/11/16 11:28:31;;;;;;;4.88;2.35;;;;;;;10.61;91.49;100065.72;6190622;23;20037;-85
2022/11/16 11:31:02;;;;;;;7.50;2.38;;;;;;;10.54;91.82;100065.31;6192347;23;20073;-83
2022/11/16 11:33:36;;;;;;;4.00;2.30;;;;;;;10.51;91.41;100060.91;6191020;23;20014;-85
2022/11/16 11:36:18;;;;;;;7.28;2.20;;;;;;;10.51;91.45;100053.66;6191225;23;20033;-83
2022/11/16 11:39:02;;;;;;;;;;;;;;;10.58;92.71;100055.25;6191803;23;20101;-82
2022/11/16 11:42:05;;;;;;;8.23;2.03;;;;;;;10.60;92.16;100048.28;6191436;23;19920;-82
2022/11/16 11:44:48;;;;;;;2.95;1.77;;;;;;;10.58;91.25;100045.34;6041775;23;20020;-84
2022/11/16 11:47:33;;;;;;;8.30;1.95;;;;;;;10.59;90.26;100038.09;6041382;23;20019;-82
2022/11/16 11:50:43;;;;;;;9.23;2.20;;;;;;;10.61;91.16;100041.75;6041569;23;20119;-79
2022/11/16 11:53:33;;;;;;;3.33;1.73;;;;;;;10.65;90.93;100033.59;6042526;23;20024;-85
2022/11/16 11:56:00;;;;;;;5.85;2.60;;;;;;;10.66;90.15;100035.06;6041757;23;20043;-80
2022/11/16 11:58:34;;;;;;;5.80;2.08;;;;;;;10.61;89.85;100033.78;6041886;23;20450;-81
2022/11/16 12:01:37;;;;;;;3.13;1.80;;;;;;;10.56;90.52;100036.34;6041046;23;20534;-81
2022/11/16 12:04:06;;;;;;;4.70;2.03;;;;;;;10.58;90.81;100045.34;6042098;23;20476;-81
2022/11/16 12:06:56;;;;;;;6.97;1.92;;;;;;;10.67;90.69;100042.59;6042085;23;20054;-80
2022/11/16 12:09:36;;;;;;;7.28;1.83;;;;;;;10.72;90.43;100038.56;6041934;23;20055;-80
2022/11/16 12:12:24;;;;;;;8.35;2.22;;;;;;;10.76;90.02;100035.75;6041975;23;20023;-80
2022/11/16 12:15:04;;;;;;;6.13;2.05;;;;;;;10.75;90.17;100036.94;6041494;23;20526;-80
2022/11/16 12:17:45;;;;;;;5.95;2.30;;;;;;;10.75;89.99;100037.66;6041283;23;20112;-81
2022/11/16 12:20:21;;;;;;;5.50;2.10;;;;;;;10.79;90.55;100040.88;6042667;23;20055;-81
2022/11/16 12:22:56;;;;;;;6.03;1.92;;;;;;;10.80;89.79;100038.94;6190980;23;20022;-81
2022/11/16 12:25:53;;;;;;;4.40;2.00;;;;;;;10.78;90.27;100031.44;6191215;23;20037;-81
2022/11/16 12:28:44;;;;;;;4.13;1.90;;;;;;;10.82;90.25;100036.56;6191228;23;20013;-80
2022/11/16 12:31:55;;;;;;;7.30;2.30;;;;;;;10.83;90.39;100035.34;6188662;23;20022;-80
2022/11/16 12:34:40;;;;;;;4.13;2.03;;;;;;;10.90;90.16;100045.66;6190962;23;20068;-81
2022/11/16 12:37:24;;;;;;;6.28;1.88;;;;;;;10.90;89.27;100043.00;6191022;23;20076;-80